sensor_id;sensor_type;location;lat;lon;timestamp;temperature;humidity
68648;SHT31;55632;51.962;16.116;2024-03-02T00:03:04;10.86;90.31
68648;SHT31;55632;51.962;16.116;2024-03-02T00:08:06;10.86;90.41
68648;SHT31;55632;51.962;16.116;2024-03-02T00:13:08;10.85;90.59
68648;SHT31;55632;51.962;16.116;2024-03-02T00:18:11;10.92;90.63
68648;SHT31;55632;51.962;16.116;2024-03-02T00:23:15;10.89;90.50
68648;SHT31;55632;51.962;16.116;2024-03-02T00:28:27;10.88;90.66
68648;SHT31;55632;51.962;16.116;2024-03-02T00:33:36;10.88;90.68
68648;SHT31;55632;51.962;16.116;2024-03-02T00:38:48;10.91;90.65
68648;SHT31;55632;51.962;16.116;2024-03-02T00:44:00;10.89;90.61
68648;SHT31;55632;51.962;16.116;2024-03-02T00:49:26;10.91;90.58
68648;SHT31;55632;51.962;16.116;2024-03-02T00:54:27;10.89;90.75
68648;SHT31;55632;51.962;16.116;2024-03-02T00:59:29;10.88;90.59
68648;SHT31;55632;51.962;16.116;2024-03-02T01:04:32;10.85;90.68
68648;SHT31;55632;51.962;16.116;2024-03-02T01:09:33;10.83;90.72
68648;SHT31;55632;51.962;16.116;2024-03-02T01:14:33;10.83;90.68
68648;SHT31;55632;51.962;16.116;2024-03-02T01:19:35;10.80;90.67
68648;SHT31;55632;51.962;16.116;2024-03-02T01:24:36;10.82;90.76
68648;SHT31;55632;51.962;16.116;2024-03-02T01:29:37;10.78;90.73
68648;SHT31;55632;51.962;16.116;2024-03-02T01:34:37;10.78;90.78
68648;SHT31;55632;51.962;16.116;2024-03-02T01:39:38;10.76;90.66
68648;SHT31;55632;51.962;16.116;2024-03-02T01:44:40;10.78;90.77
68648;SHT31;55632;51.962;16.116;2024-03-02T01:49:41;10.76;90.79
68648;SHT31;55632;51.962;16.116;2024-03-02T01:54:41;10.73;90.92
68648;SHT31;55632;51.962;16.116;2024-03-02T01:59:42;10.75;90.87
68648;SHT31;55632;51.962;16.116;2024-03-02T02:04:43;10.73;90.80
68648;SHT31;55632;51.962;16.116;2024-03-02T02:09:44;10.72;90.87
68648;SHT31;55632;51.962;16.116;2024-03-02T02:14:48;10.73;90.90
68648;SHT31;55632;51.962;16.116;2024-03-02T02:19:50;10.69;90.94
68648;SHT31;55632;51.962;16.116;2024-03-02T02:24:51;10.68;90.96
68648;SHT31;55632;51.962;16.116;2024-03-02T02:29:52;10.69;91.01
68648;SHT31;55632;51.962;16.116;2024-03-02T02:34:52;10.68;90.97
68648;SHT31;55632;51.962;16.116;2024-03-02T02:39:53;10.67;91.06
68648;SHT31;55632;51.962;16.116;2024-03-02T02:44:54;10.69;90.94
68648;SHT31;55632;51.962;16.116;2024-03-02T02:49:55;10.68;91.01
68648;SHT31;55632;51.962;16.116;2024-03-02T02:54:55;10.68;91.00
68648;SHT31;55632;51.962;16.116;2024-03-02T02:59:56;10.68;91.06
68648;SHT31;55632;51.962;16.116;2024-03-02T03:04:57;10.68;91.06
68648;SHT31;55632;51.962;16.116;2024-03-02T03:09:58;10.67;91.02
68648;SHT31;55632;51.962;16.116;2024-03-02T03:14:59;10.68;91.00
68648;SHT31;55632;51.962;16.116;2024-03-02T03:20:01;10.67;90.97
68648;SHT31;55632;51.962;16.116;2024-03-02T03:25:01;10.64;90.93
68648;SHT31;55632;51.962;16.116;2024-03-02T03:30:04;10.64;90.91
68648;SHT31;55632;51.962;16.116;2024-03-02T03:35:06;10.61;90.90
68648;SHT31;55632;51.962;16.116;2024-03-02T03:40:07;10.57;91.04
68648;SHT31;55632;51.962;16.116;2024-03-02T03:45:11;10.57;90.98
68648;SHT31;55632;51.962;16.116;2024-03-02T03:50:12;10.55;90.93
68648;SHT31;55632;51.962;16.116;2024-03-02T03:55:13;10.53;90.90
68648;SHT31;55632;51.962;16.116;2024-03-02T04:00:14;10.48;91.01
68648;SHT31;55632;51.962;16.116;2024-03-02T04:05:16;10.47;90.96
68648;SHT31;55632;51.962;16.116;2024-03-02T04:10:16;10.43;91.00
68648;SHT31;55632;51.962;16.116;2024-03-02T04:15:17;10.41;90.96
68648;SHT31;55632;51.962;16.116;2024-03-02T04:20:19;10.36;91.06
68648;SHT31;55632;51.962;16.116;2024-03-02T04:25:20;10.30;91.07
68648;SHT31;55632;51.962;16.116;2024-03-02T04:30:20;10.30;91.12
68648;SHT31;55632;51.962;16.116;2024-03-02T04:35:21;10.24;91.14
68648;SHT31;55632;51.962;16.116;2024-03-02T04:40:22;10.21;91.12
68648;SHT31;55632;51.962;16.116;2024-03-02T04:45:23;10.17;91.09
68648;SHT31;55632;51.962;16.116;2024-03-02T04:50:24;10.13;91.29
68648;SHT31;55632;51.962;16.116;2024-03-02T04:55:25;10.12;91.78
68648;SHT31;55632;51.962;16.116;2024-03-02T05:00:45;10.13;91.75
68648;SHT31;55632;51.962;16.116;2024-03-02T05:05:47;10.17;91.67
68648;SHT31;55632;51.962;16.116;2024-03-02T05:10:48;10.19;91.75
68648;SHT31;55632;51.962;16.116;2024-03-02T05:15:48;10.20;91.66
68648;SHT31;55632;51.962;16.116;2024-03-02T05:20:49;10.23;91.66
68648;SHT31;55632;51.962;16.116;2024-03-02T05:25:50;10.20;91.66
68648;SHT31;55632;51.962;16.116;2024-03-02T05:30:51;10.24;91.66
68648;SHT31;55632;51.962;16.116;2024-03-02T05:35:51;10.26;91.65
68648;SHT31;55632;51.962;16.116;2024-03-02T05:40:52;10.27;91.63
68648;SHT31;55632;51.962;16.116;2024-03-02T05:45:53;10.27;91.58
68648;SHT31;55632;51.962;16.116;2024-03-02T05:50:54;10.30;91.59
68648;SHT31;55632;51.962;16.116;2024-03-02T05:55:55;10.30;91.54
68648;SHT31;55632;51.962;16.116;2024-03-02T06:00:56;10.33;91.48
68648;SHT31;55632;51.962;16.116;2024-03-02T06:05:57;10.34;91.42
68648;SHT31;55632;51.962;16.116;2024-03-02T06:10:58;10.38;91.40
68648;SHT31;55632;51.962;16.116;2024-03-02T06:15:59;10.40;91.37
68648;SHT31;55632;51.962;16.116;2024-03-02T06:20:59;10.38;91.32
68648;SHT31;55632;51.962;16.116;2024-03-02T06:26:01;10.41;91.33
68648;SHT31;55632;51.962;16.116;2024-03-02T06:31:03;10.43;91.25
68648;SHT31;55632;51.962;16.116;2024-03-02T06:36:04;10.47;91.21
68648;SHT31;55632;51.962;16.116;2024-03-02T06:41:05;10.45;91.21
68648;SHT31;55632;51.962;16.116;2024-03-02T06:46:05;10.50;91.17
68648;SHT31;55632;51.962;16.116;2024-03-02T06:51:09;10.50;91.09
68648;SHT31;55632;51.962;16.116;2024-03-02T06:56:11;10.51;91.03
68648;SHT31;55632;51.962;16.116;2024-03-02T07:01:13;10.55;90.99
68648;SHT31;55632;51.962;16.116;2024-03-02T07:06:14;10.57;90.96
68648;SHT31;55632;51.962;16.116;2024-03-02T07:11:15;10.60;90.87
68648;SHT31;55632;51.962;16.116;2024-03-02T07:16:16;10.62;90.77
68648;SHT31;55632;51.962;16.116;2024-03-02T07:21:28;10.64;90.61
68648;SHT31;55632;51.962;16.116;2024-03-02T07:26:30;10.67;90.47
68648;SHT31;55632;51.962;16.116;2024-03-02T07:31:31;10.72;90.30
68648;SHT31;55632;51.962;16.116;2024-03-02T07:36:32;10.71;90.14
68648;SHT31;55632;51.962;16.116;2024-03-02T07:41:33;10.72;89.98
68648;SHT31;55632;51.962;16.116;2024-03-02T07:46:33;10.76;89.94
68648;SHT31;55632;51.962;16.116;2024-03-02T07:51:35;10.79;89.91
68648;SHT31;55632;51.962;16.116;2024-03-02T07:56:36;10.83;89.84
68648;SHT31;55632;51.962;16.116;2024-03-02T08:01:37;10.88;89.75
68648;SHT31;55632;51.962;16.116;2024-03-02T08:06:38;10.92;89.67
68648;SHT31;55632;51.962;16.116;2024-03-02T08:11:39;10.93;89.41
68648;SHT31;55632;51.962;16.116;2024-03-02T08:16:40;10.99;89.27
68648;SHT31;55632;51.962;16.116;2024-03-02T08:21:41;11.05;89.10
68648;SHT31;55632;51.962;16.116;2024-03-02T08:26:42;11.16;89.11
68648;SHT31;55632;51.962;16.116;2024-03-02T08:31:42;11.24;89.01
68648;SHT31;55632;51.962;16.116;2024-03-02T08:36:43;11.31;88.92
68648;SHT31;55632;51.962;16.116;2024-03-02T08:41:44;11.44;88.71
68648;SHT31;55632;51.962;16.116;2024-03-02T08:46:45;11.52;88.55
68648;SHT31;55632;51.962;16.116;2024-03-02T08:51:46;11.62;88.41
68648;SHT31;55632;51.962;16.116;2024-03-02T08:56:54;11.71;88.15
68648;SHT31;55632;51.962;16.116;2024-03-02T09:01:55;11.82;88.05
68648;SHT31;55632;51.962;16.116;2024-03-02T09:06:56;11.94;87.91
68648;SHT31;55632;51.962;16.116;2024-03-02T09:11:57;12.06;87.64
68648;SHT31;55632;51.962;16.116;2024-03-02T09:16:58;12.16;87.44
68648;SHT31;55632;51.962;16.116;2024-03-02T09:21:59;12.20;87.22
68648;SHT31;55632;51.962;16.116;2024-03-02T09:27:00;12.30;87.16
68648;SHT31;55632;51.962;16.116;2024-03-02T09:32:01;12.40;86.93
68648;SHT31;55632;51.962;16.116;2024-03-02T09:37:02;12.58;86.66
68648;SHT31;55632;51.962;16.116;2024-03-02T09:42:04;12.78;86.36
68648;SHT31;55632;51.962;16.116;2024-03-02T09:47:07;12.89;85.90
68648;SHT31;55632;51.962;16.116;2024-03-02T09:52:08;13.02;85.55
68648;SHT31;55632;51.962;16.116;2024-03-02T09:57:09;13.13;85.35
68648;SHT31;55632;51.962;16.116;2024-03-02T10:02:10;13.25;85.03
68648;SHT31;55632;51.962;16.116;2024-03-02T10:07:15;13.35;84.71
68648;SHT31;55632;51.962;16.116;2024-03-02T10:12:17;13.47;84.41
68648;SHT31;55632;51.962;16.116;2024-03-02T10:17:18;13.57;84.02
68648;SHT31;55632;51.962;16.116;2024-03-02T10:22:23;13.70;83.75
68648;SHT31;55632;51.962;16.116;2024-03-02T10:27:26;13.87;83.29
68648;SHT31;55632;51.962;16.116;2024-03-02T10:32:28;14.04;82.57
68648;SHT31;55632;51.962;16.116;2024-03-02T10:37:29;14.21;82.02
68648;SHT31;55632;51.962;16.116;2024-03-02T10:42:30;14.39;81.17
68648;SHT31;55632;51.962;16.116;2024-03-02T10:47:31;14.52;79.38
68648;SHT31;55632;51.962;16.116;2024-03-02T10:52:39;14.65;78.74
68648;SHT31;55632;51.962;16.116;2024-03-02T11:03:03;14.87;76.71
68648;SHT31;55632;51.962;16.116;2024-03-02T11:08:19;14.94;75.78
68648;SHT31;55632;51.962;16.116;2024-03-02T11:13:33;14.96;74.63
68648;SHT31;55632;51.962;16.116;2024-03-02T11:18:34;14.98;73.26
68648;SHT31;55632;51.962;16.116;2024-03-02T11:23:35;14.98;73.43
68648;SHT31;55632;51.962;16.116;2024-03-02T11:28:36;15.04;73.39
68648;SHT31;55632;51.962;16.116;2024-03-02T11:33:37;15.17;73.75
68648;SHT31;55632;51.962;16.116;2024-03-02T11:38:38;15.25;73.30
68648;SHT31;55632;51.962;16.116;2024-03-02T11:43:39;15.34;72.52
68648;SHT31;55632;51.962;16.116;2024-03-02T11:48:40;15.35;72.05
68648;SHT31;55632;51.962;16.116;2024-03-02T11:53:41;15.34;72.09
68648;SHT31;55632;51.962;16.116;2024-03-02T11:58:44;15.39;71.98
68648;SHT31;55632;51.962;16.116;2024-03-02T12:03:45;15.36;71.69
68648;SHT31;55632;51.962;16.116;2024-03-02T12:08:46;15.34;71.46
68648;SHT31;55632;51.962;16.116;2024-03-02T12:13:53;15.36;71.65
68648;SHT31;55632;51.962;16.116;2024-03-02T12:18:57;15.38;71.66
68648;SHT31;55632;51.962;16.116;2024-03-02T12:23:58;15.45;71.63
68648;SHT31;55632;51.962;16.116;2024-03-02T12:28:59;15.49;71.28
68648;SHT31;55632;51.962;16.116;2024-03-02T12:34:00;15.56;70.76
68648;SHT31;55632;51.962;16.116;2024-03-02T12:39:02;15.56;70.94
68648;SHT31;55632;51.962;16.116;2024-03-02T12:44:04;15.59;70.49
68648;SHT31;55632;51.962;16.116;2024-03-02T12:49:08;15.59;70.03
68648;SHT31;55632;51.962;16.116;2024-03-02T12:54:11;15.52;69.89
68648;SHT31;55632;51.962;16.116;2024-03-02T12:59:23;15.48;68.93
68648;SHT31;55632;51.962;16.116;2024-03-02T13:04:28;15.45;69.24
68648;SHT31;55632;51.962;16.116;2024-03-02T13:09:29;15.36;69.17
68648;SHT31;55632;51.962;16.116;2024-03-02T13:14:32;15.38;69.36
68648;SHT31;55632;51.962;16.116;2024-03-02T13:19:34;15.39;69.37
68648;SHT31;55632;51.962;16.116;2024-03-02T13:24:35;15.34;68.80
68648;SHT31;55632;51.962;16.116;2024-03-02T13:29:35;15.25;68.61
68648;SHT31;55632;51.962;16.116;2024-03-02T13:34:36;15.22;68.81
68648;SHT31;55632;51.962;16.116;2024-03-02T13:39:39;15.17;68.56
68648;SHT31;55632;51.962;16.116;2024-03-02T13:44:44;15.11;69.00
68648;SHT31;55632;51.962;16.116;2024-03-02T13:49:51;15.08;69.04
68648;SHT31;55632;51.962;16.116;2024-03-02T13:54:52;15.03;68.64
68648;SHT31;55632;51.962;16.116;2024-03-02T13:59:52;14.98;68.87
68648;SHT31;55632;51.962;16.116;2024-03-02T14:04:53;14.93;68.55
68648;SHT31;55632;51.962;16.116;2024-03-02T14:09:54;14.93;68.82
68648;SHT31;55632;51.962;16.116;2024-03-02T14:14:55;14.89;69.18
68648;SHT31;55632;51.962;16.116;2024-03-02T14:19:58;14.87;69.55
68648;SHT31;55632;51.962;16.116;2024-03-02T14:24:59;14.80;69.61
68648;SHT31;55632;51.962;16.116;2024-03-02T14:30:00;14.79;69.53
68648;SHT31;55632;51.962;16.116;2024-03-02T14:35:01;14.79;69.87
68648;SHT31;55632;51.962;16.116;2024-03-02T14:40:02;14.79;70.04
68648;SHT31;55632;51.962;16.116;2024-03-02T14:45:06;14.73;70.35
68648;SHT31;55632;51.962;16.116;2024-03-02T14:50:08;14.70;70.86
68648;SHT31;55632;51.962;16.116;2024-03-02T14:55:10;14.61;71.36
68648;SHT31;55632;51.962;16.116;2024-03-02T15:00:11;14.56;71.67
68648;SHT31;55632;51.962;16.116;2024-03-02T15:05:12;14.49;71.85
68648;SHT31;55632;51.962;16.116;2024-03-02T15:10:13;14.42;72.02
68648;SHT31;55632;51.962;16.116;2024-03-02T15:15:14;14.34;72.24
68648;SHT31;55632;51.962;16.116;2024-03-02T15:20:15;14.27;72.53
68648;SHT31;55632;51.962;16.116;2024-03-02T15:25:16;14.14;72.92
68648;SHT31;55632;51.962;16.116;2024-03-02T15:30:16;14.06;73.20
68648;SHT31;55632;51.962;16.116;2024-03-02T15:35:17;14.01;73.44
68648;SHT31;55632;51.962;16.116;2024-03-02T15:40:18;13.93;73.69
68648;SHT31;55632;51.962;16.116;2024-03-02T15:45:19;13.83;73.93
68648;SHT31;55632;51.962;16.116;2024-03-02T15:50:19;13.76;74.19
68648;SHT31;55632;51.962;16.116;2024-03-02T15:55:21;13.68;74.39
68648;SHT31;55632;51.962;16.116;2024-03-02T16:00:22;13.63;74.61
68648;SHT31;55632;51.962;16.116;2024-03-02T16:05:23;13.54;74.82
68648;SHT31;55632;51.962;16.116;2024-03-02T16:10:24;13.51;75.02
68648;SHT31;55632;51.962;16.116;2024-03-02T16:15:27;13.42;75.19
68648;SHT31;55632;51.962;16.116;2024-03-02T16:20:28;13.38;75.38
68648;SHT31;55632;51.962;16.116;2024-03-02T16:25:29;13.30;75.61
68648;SHT31;55632;51.962;16.116;2024-03-02T16:30:31;13.23;75.79
68648;SHT31;55632;51.962;16.116;2024-03-02T16:35:32;13.15;76.02
68648;SHT31;55632;51.962;16.116;2024-03-02T16:40:33;13.13;76.21
68648;SHT31;55632;51.962;16.116;2024-03-02T16:45:33;13.06;76.43
68648;SHT31;55632;51.962;16.116;2024-03-02T16:50:34;13.02;76.64
68648;SHT31;55632;51.962;16.116;2024-03-02T16:55:35;12.96;76.86
68648;SHT31;55632;51.962;16.116;2024-03-02T17:00:36;12.93;77.03
68648;SHT31;55632;51.962;16.116;2024-03-02T17:05:38;12.86;77.18
68648;SHT31;55632;51.962;16.116;2024-03-02T17:10:39;12.78;77.42
68648;SHT31;55632;51.962;16.116;2024-03-02T17:15:40;12.72;77.59
68648;SHT31;55632;51.962;16.116;2024-03-02T17:20:41;12.69;77.72
68648;SHT31;55632;51.962;16.116;2024-03-02T17:25:42;12.63;77.91
68648;SHT31;55632;51.962;16.116;2024-03-02T17:30:43;12.56;78.07
68648;SHT31;55632;51.962;16.116;2024-03-02T17:35:44;12.54;78.25
68648;SHT31;55632;51.962;16.116;2024-03-02T17:40:47;12.49;78.42
68648;SHT31;55632;51.962;16.116;2024-03-02T17:45:48;12.44;78.61
68648;SHT31;55632;51.962;16.116;2024-03-02T17:50:49;12.40;78.76
68648;SHT31;55632;51.962;16.116;2024-03-02T17:55:50;12.38;79.00
68648;SHT31;55632;51.962;16.116;2024-03-02T18:00:51;12.33;79.19
68648;SHT31;55632;51.962;16.116;2024-03-02T18:05:52;12.28;79.36
68648;SHT31;55632;51.962;16.116;2024-03-02T18:10:53;12.23;79.53
68648;SHT31;55632;51.962;16.116;2024-03-02T18:15:57;12.17;79.71
68648;SHT31;55632;51.962;16.116;2024-03-02T18:20:58;12.13;79.86
68648;SHT31;55632;51.962;16.116;2024-03-02T18:25:59;12.09;80.09
68648;SHT31;55632;51.962;16.116;2024-03-02T18:31:00;12.02;80.25
68648;SHT31;55632;51.962;16.116;2024-03-02T18:36:01;11.93;80.43
68648;SHT31;55632;51.962;16.116;2024-03-02T18:41:10;11.92;80.64
68648;SHT31;55632;51.962;16.116;2024-03-02T18:46:27;11.83;80.76
68648;SHT31;55632;51.962;16.116;2024-03-02T18:51:28;11.79;80.97
68648;SHT31;55632;51.962;16.116;2024-03-02T18:56:29;11.75;81.15
68648;SHT31;55632;51.962;16.116;2024-03-02T19:01:30;11.75;81.25
68648;SHT31;55632;51.962;16.116;2024-03-02T19:06:31;11.72;81.39
68648;SHT31;55632;51.962;16.116;2024-03-02T19:11:31;11.72;81.50
68648;SHT31;55632;51.962;16.116;2024-03-02T19:16:32;11.68;81.65
68648;SHT31;55632;51.962;16.116;2024-03-02T19:21:34;11.65;81.75
68648;SHT31;55632;51.962;16.116;2024-03-02T19:26:35;11.57;81.93
68648;SHT31;55632;51.962;16.116;2024-03-02T19:31:35;11.48;82.22
68648;SHT31;55632;51.962;16.116;2024-03-02T19:36:36;11.44;82.58
68648;SHT31;55632;51.962;16.116;2024-03-02T19:41:37;11.38;82.78
68648;SHT31;55632;51.962;16.116;2024-03-02T19:46:38;11.34;82.87
68648;SHT31;55632;51.962;16.116;2024-03-02T19:51:39;11.28;83.07
68648;SHT31;55632;51.962;16.116;2024-03-02T19:56:40;11.26;83.20
68648;SHT31;55632;51.962;16.116;2024-03-02T20:01:40;11.23;83.40
68648;SHT31;55632;51.962;16.116;2024-03-02T20:06:41;11.20;83.47
68648;SHT31;55632;51.962;16.116;2024-03-02T20:11:42;11.06;83.45
68648;SHT31;55632;51.962;16.116;2024-03-02T20:16:43;11.00;83.56
68648;SHT31;55632;51.962;16.116;2024-03-02T20:21:45;10.89;83.67
68648;SHT31;55632;51.962;16.116;2024-03-02T20:26:46;10.79;83.89
68648;SHT31;55632;51.962;16.116;2024-03-02T20:31:47;10.75;84.14
68648;SHT31;55632;51.962;16.116;2024-03-02T20:36:48;10.72;84.31
68648;SHT31;55632;51.962;16.116;2024-03-02T20:41:50;10.68;84.55
68648;SHT31;55632;51.962;16.116;2024-03-02T20:46:52;10.68;84.75
68648;SHT31;55632;51.962;16.116;2024-03-02T20:51:54;10.71;84.91
68648;SHT31;55632;51.962;16.116;2024-03-02T20:56:55;10.72;85.08
68648;SHT31;55632;51.962;16.116;2024-03-02T21:01:57;10.71;85.28
68648;SHT31;55632;51.962;16.116;2024-03-02T21:06:59;10.76;85.42
68648;SHT31;55632;51.962;16.116;2024-03-02T21:12:00;10.80;85.54
68648;SHT31;55632;51.962;16.116;2024-03-02T21:17:03;10.86;85.62
68648;SHT31;55632;51.962;16.116;2024-03-02T21:22:03;10.93;85.55
68648;SHT31;55632;51.962;16.116;2024-03-02T21:27:06;11.00;85.44
68648;SHT31;55632;51.962;16.116;2024-03-02T21:32:08;11.06;85.35
68648;SHT31;55632;51.962;16.116;2024-03-02T21:37:10;11.07;85.26
68648;SHT31;55632;51.962;16.116;2024-03-02T21:42:11;11.13;85.16
68648;SHT31;55632;51.962;16.116;2024-03-02T21:47:12;11.17;85.05
68648;SHT31;55632;51.962;16.116;2024-03-02T21:52:15;11.16;85.02
68648;SHT31;55632;51.962;16.116;2024-03-02T21:57:16;11.17;84.92
68648;SHT31;55632;51.962;16.116;2024-03-02T22:02:20;11.20;84.82
68648;SHT31;55632;51.962;16.116;2024-03-02T22:07:21;11.17;84.83
68648;SHT31;55632;51.962;16.116;2024-03-02T22:12:21;11.17;84.81
68648;SHT31;55632;51.962;16.116;2024-03-02T22:17:22;11.16;84.85
68648;SHT31;55632;51.962;16.116;2024-03-02T22:22:23;11.16;84.85
68648;SHT31;55632;51.962;16.116;2024-03-02T22:27:24;11.19;84.88
68648;SHT31;55632;51.962;16.116;2024-03-02T22:32:25;11.19;84.86
68648;SHT31;55632;51.962;16.116;2024-03-02T22:37:26;11.19;84.98
68648;SHT31;55632;51.962;16.116;2024-03-02T22:42:27;11.19;85.02
68648;SHT31;55632;51.962;16.116;2024-03-02T22:47:28;11.20;85.08
68648;SHT31;55632;51.962;16.116;2024-03-02T22:52:29;11.19;85.21
68648;SHT31;55632;51.962;16.116;2024-03-02T22:57:30;11.16;85.33
68648;SHT31;55632;51.962;16.116;2024-03-02T23:02:31;11.20;85.38
68648;SHT31;55632;51.962;16.116;2024-03-02T23:07:32;11.17;85.47
68648;SHT31;55632;51.962;16.116;2024-03-02T23:12:33;11.17;85.47
68648;SHT31;55632;51.962;16.116;2024-03-02T23:17:34;11.22;85.45
68648;SHT31;55632;51.962;16.116;2024-03-02T23:22:35;11.19;85.48
68648;SHT31;55632;51.962;16.116;2024-03-02T23:27:36;11.20;85.54
68648;SHT31;55632;51.962;16.116;2024-03-02T23:32:36;11.17;85.49
68648;SHT31;55632;51.962;16.116;2024-03-02T23:37:43;11.16;85.49
68648;SHT31;55632;51.962;16.116;2024-03-02T23:42:44;11.16;85.45
68648;SHT31;55632;51.962;16.116;2024-03-02T23:47:45;11.14;85.48
68648;SHT31;55632;51.962;16.116;2024-03-02T23:52:45;11.13;85.42
68648;SHT31;55632;51.962;16.116;2024-03-02T23:57:46;11.09;85.44
